createdAt,value
2022-09-19T00:00:05.006Z,99115.50
2022-09-19T00:05:11.163Z,99099.97
2022-09-19T00:10:12.704Z,99113.31
2022-09-19T00:15:14.251Z,99111.66
2022-09-19T00:20:15.972Z,99110.97
2022-09-19T00:25:17.641Z,99111.78
2022-09-19T00:30:19.194Z,99111.13
2022-09-19T00:35:21.084Z,99108.50
2022-09-19T00:40:22.795Z,99107.34
2022-09-19T00:45:25.260Z,99091.03
2022-09-19T00:50:28.469Z,99096.59
2022-09-19T00:55:30.444Z,99104.63
2022-09-19T01:00:33.232Z,99102.00
2022-09-19T01:05:47.522Z,99106.50
2022-09-19T01:10:58.265Z,99115.69
2022-09-19T01:16:05.109Z,99121.91
2022-09-19T01:21:40.636Z,99138.31
2022-09-19T01:27:07.161Z,99134.84
2022-09-19T01:32:14.800Z,99128.09
2022-09-19T01:37:28.767Z,99133.41
2022-09-19T01:42:31.589Z,99140.69
2022-09-19T01:47:37.970Z,99139.16
2022-09-19T01:53:04.667Z,99153.94
2022-09-19T01:58:41.943Z,99155.41
2022-09-19T02:04:13.128Z,99164.34
2022-09-19T02:09:25.572Z,99180.72
2022-09-19T02:14:31.757Z,99179.28
2022-09-19T02:19:47.907Z,99178.13
2022-09-19T02:24:53.214Z,99186.47
2022-09-19T02:29:59.750Z,99189.09
2022-09-19T02:35:06.107Z,99196.00
2022-09-19T02:40:22.945Z,99199.97
2022-09-19T02:45:33.490Z,99206.47
2022-09-19T02:50:44.640Z,99208.00
2022-09-19T02:55:52.050Z,99216.03
2022-09-19T03:01:00.466Z,99232.25
2022-09-19T03:06:06.422Z,99229.28
2022-09-19T03:11:15.756Z,99244.31
2022-09-19T03:16:22.885Z,99258.44
2022-09-19T03:21:26.677Z,99257.75
2022-09-19T03:26:35.438Z,99276.25
2022-09-19T03:31:38.732Z,99270.38
2022-09-19T03:36:44.674Z,99280.03
2022-09-19T03:41:51.217Z,99293.94
2022-09-19T03:46:52.827Z,99291.34
2022-09-19T03:51:54.453Z,99296.13
2022-09-19T03:56:56.128Z,99298.91
2022-09-19T04:01:59.339Z,99300.63
2022-09-19T04:07:02.355Z,99306.06
2022-09-19T04:12:06.326Z,99309.38
2022-09-19T04:17:26.604Z,99314.22
2022-09-19T04:22:33.845Z,99318.63
2022-09-19T04:27:53.813Z,99325.25
2022-09-19T04:32:56.304Z,99335.31
2022-09-19T04:37:58.180Z,99340.34
2022-09-19T04:42:59.896Z,99344.31
2022-09-19T04:48:06.048Z,99349.06
2022-09-19T04:53:08.932Z,99358.84
2022-09-19T04:58:11.476Z,99359.16
2022-09-19T05:03:18.319Z,99359.63
2022-09-19T05:08:28.826Z,99362.69
2022-09-19T05:13:38.275Z,99369.19
2022-09-19T05:18:42.353Z,99376.53
2022-09-19T05:23:48.308Z,99378.84
2022-09-19T05:28:51.577Z,99387.72
2022-09-19T05:33:56.163Z,99378.84
2022-09-19T05:39:00.876Z,99390.69
2022-09-19T05:44:24.079Z,99402.44
2022-09-19T05:49:32.273Z,99405.66
2022-09-19T05:54:36.251Z,99408.78
2022-09-19T06:00:06.544Z,99415.97
2022-09-19T06:05:15.343Z,99410.84
2022-09-19T06:10:20.874Z,99417.34
2022-09-19T06:15:23.461Z,99413.81
2022-09-19T06:20:26.778Z,99422.41
2022-09-19T06:25:43.798Z,99421.00
2022-09-19T06:30:46.656Z,99427.28
2022-09-19T06:35:58.795Z,99427.97
2022-09-19T06:41:02.186Z,99441.25
2022-09-19T06:46:23.270Z,99445.81
2022-09-19T06:51:45.340Z,99456.25
2022-09-19T06:56:50.503Z,99451.16
2022-09-19T07:01:55.034Z,99465.22
2022-09-19T07:06:59.188Z,99469.09
2022-09-19T07:12:02.387Z,99478.97
2022-09-19T07:17:07.586Z,99483.00
2022-09-19T07:22:12.050Z,99493.84
2022-09-19T07:27:37.509Z,99502.69
2022-09-19T07:32:41.033Z,99512.00
2022-09-19T07:37:48.635Z,99524.72
2022-09-19T07:43:06.907Z,99521.13
2022-09-19T07:48:23.769Z,99533.91
2022-09-19T07:54:03.470Z,99541.03
2022-09-19T07:59:05.914Z,99545.31
2022-09-19T08:04:19.561Z,99554.84
2022-09-19T08:09:26.311Z,99552.78
2022-09-19T08:14:40.447Z,99575.75
2022-09-19T08:19:44.286Z,99581.88
2022-09-19T08:24:45.890Z,99581.66
2022-09-19T08:29:50.117Z,99588.78
2022-09-19T08:34:53.446Z,99592.44
2022-09-19T08:40:14.668Z,99610.25
2022-09-19T08:45:34.333Z,99619.03
2022-09-19T08:50:38.607Z,99624.25
2022-09-19T08:55:51.099Z,99630.84
2022-09-19T09:00:55.920Z,99630.91
2022-09-19T09:06:31.907Z,99638.16
2022-09-19T09:12:05.882Z,99635.94
2022-09-19T09:17:18.925Z,99650.88
2022-09-19T09:22:27.071Z,99651.97
2022-09-19T09:28:13.098Z,99662.97
2022-09-19T09:33:34.760Z,99669.97
2022-09-19T09:38:48.202Z,99674.31
2022-09-19T09:44:18.061Z,99668.19
2022-09-19T09:49:30.892Z,99669.88
2022-09-19T09:55:29.255Z,99677.03
2022-09-19T10:00:51.479Z,99692.38
2022-09-19T10:06:01.819Z,99681.94
2022-09-19T10:16:47.271Z,99692.31
2022-09-19T10:21:51.265Z,99701.59
2022-09-19T10:27:01.366Z,99702.81
2022-09-19T10:32:09.263Z,99707.69
2022-09-19T10:37:36.648Z,99714.59
2022-09-19T10:42:42.356Z,99714.59
2022-09-19T10:48:11.557Z,99721.34
2022-09-19T10:53:23.417Z,99715.53
2022-09-19T10:58:28.211Z,99716.75
2022-09-19T11:04:11.937Z,99718.22
2022-09-19T11:09:27.373Z,99714.75
2022-09-19T11:14:36.686Z,99721.53
2022-09-19T11:20:17.318Z,99723.50
2022-09-19T11:25:41.190Z,99717.34
2022-09-19T11:31:12.910Z,99716.50
2022-09-19T11:36:45.314Z,99717.88
2022-09-19T11:42:04.257Z,99713.63
2022-09-19T11:47:13.849Z,99716.91
2022-09-19T11:52:27.327Z,99712.16
2022-09-19T11:57:47.748Z,99709.00
2022-09-19T12:03:28.695Z,99704.84
2022-09-19T12:09:15.598Z,99712.38
2022-09-19T12:14:28.474Z,99702.19
2022-09-19T12:19:42.823Z,99704.97
2022-09-19T12:24:59.526Z,99704.72
2022-09-19T12:30:12.239Z,99705.72
2022-09-19T12:35:23.763Z,99705.53
2022-09-19T12:40:50.867Z,99703.19
2022-09-19T12:46:17.623Z,99701.16
2022-09-19T12:51:26.930Z,99698.31
2022-09-19T12:56:41.676Z,99701.00
2022-09-19T13:01:57.203Z,99694.34
2022-09-19T13:07:10.787Z,99700.03
2022-09-19T13:12:36.535Z,99687.72
2022-09-19T13:18:07.286Z,99698.91
2022-09-19T13:23:31.888Z,99696.66
2022-09-19T13:28:45.952Z,99690.81
2022-09-19T13:33:49.589Z,99688.09
2022-09-19T13:38:57.882Z,99688.34
2022-09-19T13:44:07.688Z,99680.66
2022-09-19T13:49:36.274Z,99685.34
2022-09-19T13:54:57.720Z,99678.88
2022-09-19T14:00:02.598Z,99675.69
2022-09-19T14:05:19.894Z,99680.56
2022-09-19T14:10:40.575Z,99682.38
2022-09-19T14:15:42.233Z,99686.78
2022-09-19T14:20:55.163Z,99687.81
2022-09-19T14:26:03.380Z,99687.13
2022-09-19T14:31:51.786Z,99686.38
2022-09-19T14:37:05.322Z,99695.09
2022-09-19T14:42:20.100Z,99704.97
2022-09-19T14:47:33.024Z,99705.09
2022-09-19T14:52:41.099Z,99709.25
2022-09-19T14:57:52.857Z,99700.34
2022-09-19T15:02:56.082Z,99704.97
2022-09-19T15:07:58.102Z,99706.78
2022-09-19T15:13:10.898Z,99713.66
2022-09-19T15:18:23.693Z,99723.50
2022-09-19T15:23:29.122Z,99737.22
2022-09-19T15:28:38.687Z,99741.03
2022-09-19T15:33:41.091Z,99747.34
2022-09-19T15:38:46.151Z,99750.63
2022-09-19T15:43:48.268Z,99768.72
2022-09-19T15:48:57.421Z,99806.97
2022-09-19T15:54:02.037Z,99803.94
2022-09-19T15:59:03.818Z,99796.84
2022-09-19T16:04:18.580Z,99796.91
2022-09-19T16:09:32.570Z,99789.13
2022-09-19T16:14:41.518Z,99782.06
2022-09-19T16:19:46.282Z,99787.25
2022-09-19T16:25:03.870Z,99789.00
2022-09-19T16:30:10.702Z,99797.19
2022-09-19T16:35:20.432Z,99805.41
2022-09-19T16:40:27.831Z,99808.88
2022-09-19T16:45:41.566Z,99818.63
2022-09-19T16:50:43.892Z,99813.47
2022-09-19T16:55:52.305Z,99822.00
2022-09-19T17:00:56.788Z,99824.88
2022-09-19T17:05:59.223Z,99811.59
2022-09-19T17:11:00.850Z,99808.22
2022-09-19T17:16:06.353Z,99806.69
2022-09-19T17:21:16.679Z,99820.81
2022-09-19T17:26:18.516Z,99851.13
2022-09-19T17:31:23.164Z,99888.03
2022-09-19T17:36:24.868Z,99909.13
2022-09-19T17:41:26.922Z,99908.47
2022-09-19T17:46:28.683Z,99914.88
2022-09-19T17:51:30.492Z,99931.69
2022-09-19T17:56:32.358Z,99923.97
2022-09-19T18:01:52.604Z,99908.03
2022-09-19T18:06:54.629Z,99914.44
2022-09-19T18:11:56.364Z,99907.06
2022-09-19T18:16:59.258Z,99908.53
2022-09-19T18:22:00.752Z,99907.81
2022-09-19T18:27:02.547Z,99923.75
2022-09-19T18:32:04.504Z,99923.97
2022-09-19T18:37:06.154Z,99915.84
2022-09-19T18:42:07.815Z,99935.09
2022-09-19T18:47:10.127Z,99936.03
2022-09-19T18:52:11.659Z,99944.06
2022-09-19T18:57:13.733Z,99947.00
2022-09-19T19:02:15.683Z,99948.47
2022-09-19T19:07:17.435Z,99945.94
2022-09-19T19:12:36.742Z,99953.53
2022-09-19T19:17:40.853Z,99945.69
2022-09-19T19:22:42.491Z,99937.56
2022-09-19T19:27:46.986Z,99936.38
2022-09-19T19:32:51.535Z,99935.59
2022-09-19T19:37:53.144Z,99933.81
2022-09-19T19:42:54.735Z,99936.94
2022-09-19T19:47:56.420Z,99932.66
2022-09-19T19:52:58.175Z,99938.41
2022-09-19T19:57:59.809Z,99940.88
2022-09-19T20:03:01.391Z,99950.00
2022-09-19T20:08:03.033Z,99944.09
2022-09-19T20:13:04.677Z,99943.06
2022-09-19T20:18:08.158Z,99942.16
2022-09-19T20:23:09.846Z,99939.34
2022-09-19T20:28:11.369Z,99946.38
2022-09-19T20:33:12.999Z,99940.81
2022-09-19T20:38:18.090Z,99945.22
2022-09-19T20:43:19.675Z,99943.25
2022-09-19T20:48:21.253Z,99955.44
2022-09-19T20:53:28.440Z,99954.25
2022-09-19T20:58:31.316Z,99949.91
2022-09-19T21:03:33.896Z,99954.31
2022-09-19T21:08:36.805Z,99953.50
2022-09-19T21:13:40.048Z,99951.97
2022-09-19T21:18:44.842Z,99957.56
2022-09-19T21:23:48.294Z,99968.09
2022-09-19T21:28:52.557Z,99969.88
2022-09-19T21:33:59.413Z,99968.25
2022-09-19T21:39:01.271Z,99968.00
2022-09-19T21:44:04.846Z,99969.16
2022-09-19T21:49:06.879Z,99967.31
2022-09-19T21:54:09.220Z,99967.31
2022-09-19T21:59:10.841Z,99975.19
2022-09-19T22:04:12.509Z,99973.81
2022-09-19T22:09:14.594Z,99978.97
2022-09-19T22:14:16.397Z,99985.38
2022-09-19T22:19:18.054Z,99984.00
2022-09-19T22:24:19.650Z,99980.69
2022-09-19T22:29:21.216Z,99978.38
2022-09-19T22:34:22.922Z,99974.59
2022-09-19T22:39:24.485Z,99981.06
2022-09-19T22:44:26.095Z,99975.38
2022-09-19T22:49:27.712Z,99988.81
2022-09-19T22:54:29.403Z,99986.38
2022-09-19T22:59:31.048Z,99991.91
2022-09-19T23:04:32.636Z,99996.47
2022-09-19T23:09:34.235Z,100011.41
2022-09-19T23:14:39.595Z,100015.78
2022-09-19T23:19:41.167Z,100021.84
2022-09-19T23:24:42.769Z,100027.34
2022-09-19T23:29:44.401Z,100025.66
2022-09-19T23:34:46.795Z,100025.72
2022-09-19T23:39:48.292Z,100031.78
2022-09-19T23:44:49.846Z,100038.53
2022-09-19T23:49:51.386Z,100039.22
2022-09-19T23:54:52.890Z,100046.25
2022-09-19T23:59:54.566Z,100054.81
